»·PEaware :: SWA8842 KPHX-KABQ

SWA8842 :: KPHX-KABQ

FLIGHT INFORMATION

Flight Status: Arrived
Operator:
Southwest Airlines
More flights by this operator :: More flights under this callsign
Pilot: Ruben R. (12247)
Aircraft: BOEING 737-800
(B738)
More flights by this aircraft type
Origin: KPHX Phoenix Sky Harbor Intl
United States
Destination: KABQ Albuquerque Intl Sunport
United States
More flights between these airports :: More routes between these airports
Route: FORPE1 SJN CABNO KRKEE3
File this flight plan on PilotEdge
Remarks: twitch.tv / mach3Legend
Altitude:
(Current/Filed)
35,000ft
Speed:
(Current/Filed)
450kts
Departed: 06-Dec-18 10:18 PM
Arrived: 06-Dec-18 11:18 PM
Distance/Time
Traveled:
286nm/1:00
Distance/Time
To Go:
Arrived

Flight Plot

Page will automatically refresh every two minutes.

Flight plan parsing failed; only flown route is shown


Map Options




Map Legend


Flown Route
Filed Route
Departure Airport
Arrival Airport
Navaid (VOR, NDB)
Fix

Horizontal Profiles

Position Reports

Time Latitude Longitude Heading Altitude Ground
Speed
06-Dec-18 21:52 33.433411 -111.998968 4 1116ft 0kts
06-Dec-18 21:53 33.433411 -111.998968 4 1116ft 0kts
06-Dec-18 21:54 33.433411 -111.998968 4 1116ft 0kts
06-Dec-18 21:55 33.433411 -111.998968 4 1116ft 0kts
06-Dec-18 21:56 33.433411 -111.998968 4 1116ft 0kts
06-Dec-18 21:57 33.433411 -111.998968 4 1116ft 0kts
06-Dec-18 21:58 33.433411 -111.998968 4 1116ft 0kts
06-Dec-18 21:59 33.433411 -111.998968 4 1116ft 0kts
06-Dec-18 22:00 33.433411 -111.998968 4 1116ft 0kts
06-Dec-18 22:01 33.433411 -111.998968 4 1116ft 0kts
06-Dec-18 22:02 33.433411 -111.998968 4 1116ft 0kts
06-Dec-18 22:03 33.433411 -111.998968 4 1116ft 0kts
06-Dec-18 22:04 33.433411 -111.998968 4 1116ft 0kts
06-Dec-18 22:05 33.433224 -111.998941 335 1116ft 2kts
06-Dec-18 22:06 33.432973 -111.998404 259 1116ft 1kts
06-Dec-18 22:07 33.432975 -111.998395 259 1116ft 0kts
06-Dec-18 22:08 33.432974 -111.998395 259 1116ft 0kts
06-Dec-18 22:09 33.432959 -111.998479 257 1116ft 3kts
06-Dec-18 22:10 33.432858 -112.001741 269 1116ft 17kts
06-Dec-18 22:11 33.432875 -112.005385 271 1116ft 9kts
06-Dec-18 22:12 33.432891 -112.009948 270 1116ft 22kts
06-Dec-18 22:13 33.432894 -112.015861 270 1116ft 17kts
06-Dec-18 22:14 33.432893 -112.020500 270 1116ft 12kts
06-Dec-18 22:15 33.432902 -112.024198 270 1116ft 11kts
06-Dec-18 22:16 33.431858 -112.026965 181 1116ft 9kts
06-Dec-18 22:17 33.431074 -112.021545 90 1116ft 83kts
06-Dec-18 22:18 33.431015 -111.979075 90 1720ft 178kts
06-Dec-18 22:19 33.433656 -111.915375 83 2900ft 233kts
06-Dec-18 22:20 33.451192 -111.841270 63 4861ft 250kts
06-Dec-18 22:21 33.483420 -111.763599 63 7271ft 277kts
06-Dec-18 22:22 33.517777 -111.680637 63 9883ft 289kts
06-Dec-18 22:23 33.556220 -111.587564 63 11686ft 330kts
06-Dec-18 22:24 33.596868 -111.488900 63 14218ft 342kts
06-Dec-18 22:25 33.638773 -111.386902 63 15033ft 349kts
06-Dec-18 22:26 33.681147 -111.283452 63 17371ft 359kts
06-Dec-18 22:27 33.720638 -111.176012 67 19331ft 374kts
06-Dec-18 22:28 33.760227 -111.064594 66 21034ft 383kts
06-Dec-18 22:29 33.801316 -110.948929 66 21064ft 379kts
06-Dec-18 22:30 33.842098 -110.833758 66 21155ft 379kts
06-Dec-18 22:31 33.883667 -110.715953 66 22584ft 388kts
06-Dec-18 22:32 33.925873 -110.595909 66 24174ft 397kts
06-Dec-18 22:33 33.968829 -110.473269 66 25659ft 406kts
06-Dec-18 22:34 34.011668 -110.350498 66 26980ft 414kts
06-Dec-18 22:35 34.054499 -110.227280 67 28189ft 422kts
06-Dec-18 22:36 34.099465 -110.097392 67 29350ft 430kts
06-Dec-18 22:37 34.143146 -109.970656 66 30309ft 439kts
06-Dec-18 22:38 34.189157 -109.836664 67 30931ft 456kts
06-Dec-18 22:39 34.237351 -109.696270 73 32370ft 450kts
06-Dec-18 22:40 34.278758 -109.574215 64 35168ft 365kts
06-Dec-18 22:41 34.317189 -109.461071 64 35179ft 368kts
06-Dec-18 22:42 34.355151 -109.348921 64 35177ft 368kts
06-Dec-18 22:43 34.393049 -109.236064 65 35188ft 369kts
06-Dec-18 22:44 34.428175 -109.120379 73 35146ft 374kts
06-Dec-18 22:45 34.446741 -108.996827 74 35130ft 375kts
06-Dec-18 22:46 34.465462 -108.873649 74 35209ft 373kts
06-Dec-18 22:47 34.484098 -108.750553 74 35207ft 373kts
06-Dec-18 22:48 34.502635 -108.627370 74 35205ft 373kts
06-Dec-18 22:49 34.521139 -108.503569 74 35203ft 375kts
06-Dec-18 22:50 34.539513 -108.379702 74 35201ft 375kts
06-Dec-18 22:51 34.554831 -108.275216 75 35204ft 375kts
06-Dec-18 22:52 34.573000 -108.150436 75 35205ft 375kts
06-Dec-18 22:53 34.590911 -108.026748 75 35189ft 373kts
06-Dec-18 22:54 34.608835 -107.902381 75 35031ft 372kts
06-Dec-18 22:55 34.633327 -107.782328 61 31111ft 369kts
06-Dec-18 22:56 34.680355 -107.672651 60 27151ft 365kts
06-Dec-18 22:58 34.725958 -107.566802 60 23318ft 350kts
06-Dec-18 22:59 34.769732 -107.464898 60 19458ft 335kts
06-Dec-18 23:00 34.811445 -107.367516 60 15868ft 311kts
06-Dec-18 23:01 34.847041 -107.283777 60 14004ft 264kts
06-Dec-18 23:02 34.878862 -107.206844 60 12760ft 240kts
06-Dec-18 23:03 34.907692 -107.137199 59 11883ft 209kts
06-Dec-18 23:04 34.929859 -107.084932 58 11041ft 140kts
06-Dec-18 23:05 34.946973 -107.044869 58 10575ft 132kts
06-Dec-18 23:06 34.963880 -107.005254 58 10111ft 131kts
06-Dec-18 23:07 34.980379 -106.966293 59 9602ft 130kts
06-Dec-18 23:08 34.995902 -106.926937 59 9048ft 127kts
06-Dec-18 23:09 35.009586 -106.892030 58 8567ft 110kts
06-Dec-18 23:10 35.022747 -106.858641 58 8104ft 109kts
06-Dec-18 23:11 35.035808 -106.825519 58 7960ft 111kts
06-Dec-18 23:12 35.046700 -106.782764 77 7974ft 147kts
06-Dec-18 23:13 35.042582 -106.731048 79 6970ft 149kts
06-Dec-18 23:14 35.044055 -106.690895 71 5958ft 94kts
06-Dec-18 23:15 35.044527 -106.659564 71 5836ft 92kts
06-Dec-18 23:16 35.044275 -106.628286 72 5426ft 92kts
06-Dec-18 23:16 35.044225 -106.602747 84 5319ft 81kts
06-Dec-18 23:18 35.044215 -106.583706 72 5316ft 6kts
06-Dec-18 23:19 35.044575 -106.583018 49 5316ft 0kts
06-Dec-18 23:19 35.044575 -106.583017 50 5316ft 0kts
06-Dec-18 23:20 35.044522 -106.583093 50 5316ft 0kts
06-Dec-18 23:22 35.044426 -106.583232 50 5316ft 0kts
06-Dec-18 23:22 35.044360 -106.583328 50 5316ft 0kts
06-Dec-18 23:24 35.044265 -106.583468 50 5316ft 0kts
06-Dec-18 23:24 35.044198 -106.583563 50 5316ft 0kts
06-Dec-18 23:25 35.044114 -106.583681 50 5316ft 0kts

Navigation Log

Ident Type
Flight plan parsing failed, navigation log unavailable